createdAt,value
2022-10-28T00:00:51.037Z,95.67
2022-10-28T00:03:19.331Z,95.12
2022-10-28T00:05:48.293Z,95.06
2022-10-28T00:08:15.874Z,94.95
2022-10-28T00:10:43.546Z,94.79
2022-10-28T00:13:11.105Z,93.72
2022-10-28T00:15:38.662Z,93.44
2022-10-28T00:18:06.331Z,92.87
2022-10-28T00:20:33.911Z,92.42
2022-10-28T00:23:02.843Z,92.15
2022-10-28T00:25:30.453Z,92.56
2022-10-28T00:27:58.102Z,92.90
2022-10-28T00:30:25.701Z,93.34
2022-10-28T00:32:53.728Z,94.14
2022-10-28T00:35:21.517Z,93.90
2022-10-28T00:37:49.055Z,93.48
2022-10-28T00:40:18.174Z,94.01
2022-10-28T00:42:45.803Z,93.57
2022-10-28T00:45:13.662Z,93.23
2022-10-28T00:47:51.746Z,93.20
2022-10-28T00:50:31.145Z,93.94
2022-10-28T00:53:02.868Z,94.53
2022-10-28T00:55:33.922Z,94.78
2022-10-28T00:58:03.452Z,95.33
2022-10-28T01:00:31.497Z,94.87
2022-10-28T01:02:59.080Z,94.23
2022-10-28T01:05:30.025Z,93.82
2022-10-28T01:08:00.620Z,93.94
2022-10-28T01:10:43.326Z,94.73
2022-10-28T01:13:16.543Z,95.02
2022-10-28T01:15:52.447Z,94.56
2022-10-28T01:18:27.334Z,94.25
2022-10-28T01:21:34.055Z,93.73
2022-10-28T01:24:16.745Z,93.57
2022-10-28T01:27:20.385Z,93.56
2022-10-28T01:30:04.854Z,94.00
2022-10-28T01:32:41.858Z,94.29
2022-10-28T01:35:20.225Z,94.34
2022-10-28T01:37:57.075Z,95.21
2022-10-28T01:40:34.801Z,95.71
2022-10-28T01:43:10.161Z,96.34
2022-10-28T01:45:44.301Z,96.76
2022-10-28T01:48:16.940Z,97.07
2022-10-28T01:50:52.038Z,97.55
2022-10-28T01:53:25.016Z,97.13
2022-10-28T01:55:56.404Z,97.00
2022-10-28T01:58:29.580Z,97.32
2022-10-28T02:00:58.534Z,96.92
2022-10-28T02:03:28.296Z,97.10
2022-10-28T02:05:57.975Z,96.34
2022-10-28T02:08:44.700Z,96.20
2022-10-28T02:11:26.645Z,96.75
2022-10-28T02:14:03.015Z,97.61
2022-10-28T02:16:39.178Z,98.05
2022-10-28T02:19:17.938Z,98.78
2022-10-28T02:21:57.358Z,99.03
2022-10-28T02:24:35.264Z,99.24
2022-10-28T02:27:12.217Z,99.53
2022-10-28T02:29:46.473Z,99.68
2022-10-28T02:32:18.954Z,99.45
2022-10-28T02:34:50.338Z,99.97
2022-10-28T02:37:22.038Z,99.09
2022-10-28T02:39:54.107Z,99.05
2022-10-28T02:42:25.091Z,99.03
2022-10-28T02:44:56.888Z,98.66
2022-10-28T02:47:29.823Z,98.94
2022-10-28T02:50:02.245Z,98.61
2022-10-28T02:52:32.243Z,98.19
2022-10-28T02:55:04.473Z,98.78
2022-10-28T02:57:35.090Z,99.81
2022-10-28T03:00:07.100Z,100.00
2022-10-28T03:02:34.834Z,100.00
2022-10-28T03:05:04.154Z,100.00
2022-10-28T03:07:31.710Z,100.00
2022-10-28T03:09:59.402Z,100.00
2022-10-28T03:12:26.978Z,100.00
2022-10-28T03:14:54.621Z,100.00
2022-10-28T03:17:22.224Z,100.00
2022-10-28T03:19:49.834Z,100.00
2022-10-28T03:22:18.808Z,100.00
2022-10-28T03:24:46.465Z,100.00
2022-10-28T03:27:14.118Z,99.20
2022-10-28T03:29:44.937Z,98.94
2022-10-28T03:32:13.981Z,99.16
2022-10-28T03:34:41.838Z,97.89
2022-10-28T03:37:09.388Z,96.91
2022-10-28T03:39:38.313Z,96.38
2022-10-28T03:42:06.085Z,97.19
2022-10-28T03:44:33.684Z,96.61
2022-10-28T03:47:01.250Z,96.27
2022-10-28T03:49:28.866Z,96.11
2022-10-28T03:51:56.453Z,96.81
2022-10-28T03:54:24.079Z,96.20
2022-10-28T03:56:53.058Z,96.23
2022-10-28T03:59:20.659Z,96.78
2022-10-28T04:01:48.373Z,97.54
2022-10-28T04:04:17.095Z,98.04
2022-10-28T04:06:44.712Z,97.35
2022-10-28T04:09:15.076Z,97.18
2022-10-28T04:11:43.601Z,96.75
2022-10-28T04:14:14.921Z,96.58
2022-10-28T04:16:42.487Z,96.68
2022-10-28T04:19:12.765Z,96.27
2022-10-28T04:21:43.802Z,96.78
2022-10-28T04:24:11.568Z,96.75
2022-10-28T04:26:39.161Z,96.92
2022-10-28T04:29:06.827Z,97.25
2022-10-28T04:31:35.717Z,96.60
2022-10-28T04:34:06.126Z,96.23
2022-10-28T04:36:33.733Z,95.81
2022-10-28T04:39:01.362Z,96.18
2022-10-28T04:41:28.955Z,95.27
2022-10-28T04:43:57.013Z,95.32
2022-10-28T04:46:24.734Z,95.08
2022-10-28T04:48:53.675Z,95.43
2022-10-28T04:51:21.235Z,95.70
2022-10-28T04:53:48.830Z,95.51
2022-10-28T04:56:16.418Z,95.55
2022-10-28T04:58:44.367Z,94.91
2022-10-28T05:01:12.231Z,94.45
2022-10-28T05:03:39.869Z,94.55
2022-10-28T05:06:09.063Z,95.05
2022-10-28T05:08:36.866Z,96.20
2022-10-28T05:11:04.492Z,96.70
2022-10-28T05:13:32.079Z,96.40
2022-10-28T05:15:59.645Z,97.15
2022-10-28T05:18:27.259Z,97.43
2022-10-28T05:20:55.233Z,98.00
2022-10-28T05:23:27.145Z,98.24
2022-10-28T05:25:57.563Z,98.70
2022-10-28T05:28:25.201Z,99.15
2022-10-28T05:30:52.964Z,98.42
2022-10-28T05:33:20.587Z,98.70
2022-10-28T05:35:48.161Z,99.09
2022-10-28T05:38:15.899Z,98.73
2022-10-28T05:40:44.843Z,99.38
2022-10-28T05:43:12.421Z,99.06
2022-10-28T05:45:40.006Z,100.00
2022-10-28T05:48:08.310Z,100.00
2022-10-28T05:50:36.039Z,100.00
2022-10-28T05:53:03.611Z,100.00
2022-10-28T05:55:32.025Z,99.53
2022-10-28T05:58:00.983Z,99.54
2022-10-28T06:00:28.863Z,100.00
2022-10-28T06:03:03.961Z,99.60
2022-10-28T06:05:31.551Z,99.96
2022-10-28T06:07:59.142Z,99.52
2022-10-28T06:10:26.983Z,98.75
2022-10-28T06:12:57.051Z,99.14
2022-10-28T06:15:25.968Z,98.87
2022-10-28T06:17:53.565Z,99.36
2022-10-28T06:20:21.159Z,99.16
2022-10-28T06:22:49.905Z,99.16
2022-10-28T06:25:19.253Z,99.06
2022-10-28T06:27:52.775Z,99.00
2022-10-28T06:30:20.847Z,98.95
2022-10-28T06:32:49.783Z,98.86
2022-10-28T06:35:17.935Z,99.02
2022-10-28T06:37:45.512Z,98.21
2022-10-28T06:40:13.246Z,97.96
2022-10-28T06:42:40.848Z,97.95
2022-10-28T06:45:09.275Z,98.54
2022-10-28T06:47:41.395Z,98.35
2022-10-28T06:50:11.123Z,98.00
2022-10-28T06:52:40.746Z,97.29
2022-10-28T06:55:08.921Z,96.90
2022-10-28T06:57:36.560Z,96.79
2022-10-28T07:00:04.945Z,96.28
2022-10-28T07:02:32.573Z,96.12
2022-10-28T07:05:00.276Z,95.58
2022-10-28T07:07:29.235Z,95.00
2022-10-28T07:09:56.882Z,94.17
2022-10-28T07:12:24.560Z,94.60
2022-10-28T07:14:52.135Z,94.76
2022-10-28T07:17:19.755Z,94.09
2022-10-28T07:19:47.467Z,94.37
2022-10-28T07:22:17.555Z,93.25
2022-10-28T07:24:49.045Z,93.01
2022-10-28T07:27:18.737Z,93.49
2022-10-28T07:29:46.375Z,94.51
2022-10-28T07:32:13.980Z,94.26
2022-10-28T07:34:47.643Z,94.44
2022-10-28T07:37:15.209Z,93.88
2022-10-28T07:39:44.637Z,93.69
2022-10-28T07:42:15.459Z,93.56
2022-10-28T07:44:43.091Z,93.54
2022-10-28T07:47:10.760Z,93.84
2022-10-28T07:49:38.311Z,93.37
2022-10-28T07:52:05.989Z,93.62
2022-10-28T07:54:33.614Z,93.60
2022-10-28T07:57:01.153Z,92.77
2022-10-28T07:59:30.096Z,93.04
2022-10-28T08:01:57.708Z,92.75
2022-10-28T08:04:25.316Z,91.89
2022-10-28T08:09:25.641Z,90.97
2022-10-28T08:11:56.867Z,91.08
2022-10-28T08:14:24.483Z,90.84
2022-10-28T08:16:53.683Z,90.08
2022-10-28T08:19:21.291Z,88.60
2022-10-28T08:21:48.883Z,87.38
2022-10-28T08:24:16.571Z,87.21
2022-10-28T08:26:44.220Z,86.24
2022-10-28T08:29:12.380Z,86.44
2022-10-28T08:31:40.124Z,86.57
2022-10-28T08:34:09.360Z,86.29
2022-10-28T08:36:37.276Z,86.62
2022-10-28T08:39:05.198Z,86.50
2022-10-28T08:41:38.687Z,86.50
2022-10-28T08:44:42.756Z,84.71
2022-10-28T08:47:35.091Z,83.77
2022-10-28T08:50:12.278Z,84.48
2022-10-28T08:52:44.404Z,84.43
2022-10-28T08:55:16.570Z,82.26
2022-10-28T08:57:47.867Z,82.54
2022-10-28T09:00:23.215Z,81.23
2022-10-28T09:03:17.832Z,81.25
2022-10-28T09:05:49.959Z,81.39
2022-10-28T09:08:23.544Z,81.33
2022-10-28T09:11:26.291Z,81.08
2022-10-28T09:14:09.761Z,81.03
2022-10-28T09:16:45.572Z,81.74
2022-10-28T09:19:20.293Z,82.43
2022-10-28T09:22:03.941Z,82.55
2022-10-28T09:24:44.643Z,81.19
2022-10-28T09:27:19.410Z,73.62
2022-10-28T09:29:58.645Z,64.70
2022-10-28T09:32:33.373Z,62.83
2022-10-28T09:35:06.331Z,62.34
2022-10-28T09:37:39.566Z,63.43
2022-10-28T09:40:16.736Z,63.54
2022-10-28T09:42:52.217Z,64.39
2022-10-28T09:45:24.314Z,65.28
2022-10-28T09:47:58.054Z,65.84
2022-10-28T09:50:30.553Z,65.98
2022-10-28T09:53:05.824Z,67.22
2022-10-28T09:55:33.725Z,67.83
2022-10-28T09:58:01.315Z,68.41
2022-10-28T10:00:28.857Z,68.73
2022-10-28T10:02:58.585Z,68.15
2022-10-28T10:05:27.298Z,67.59
2022-10-28T10:07:58.531Z,66.57
2022-10-28T10:10:31.488Z,65.65
2022-10-28T10:13:03.782Z,65.15
2022-10-28T10:15:34.205Z,61.56
2022-10-28T10:18:05.054Z,57.42
2022-10-28T10:20:48.453Z,55.58
2022-10-28T10:23:24.316Z,55.74
2022-10-28T10:25:59.161Z,55.41
2022-10-28T10:28:28.204Z,57.73
2022-10-28T10:30:58.646Z,57.63
2022-10-28T10:33:29.379Z,59.30
2022-10-28T10:36:00.362Z,58.53
2022-10-28T10:38:29.920Z,59.37
2022-10-28T10:40:59.198Z,60.03
2022-10-28T10:43:32.181Z,58.28
2022-10-28T10:46:06.602Z,58.18
2022-10-28T10:48:36.425Z,57.48
2022-10-28T10:51:09.525Z,56.94
2022-10-28T10:53:38.984Z,57.16
2022-10-28T10:56:10.685Z,57.17
2022-10-28T10:58:41.417Z,56.97
2022-10-28T11:01:09.811Z,54.63
2022-10-28T11:03:40.842Z,53.42
2022-10-28T11:06:23.678Z,51.63
2022-10-28T11:08:58.284Z,49.91
2022-10-28T11:11:35.435Z,47.03
2022-10-28T11:14:07.010Z,44.77
2022-10-28T11:16:34.620Z,42.25
2022-10-28T11:19:20.441Z,41.24
2022-10-28T11:21:59.983Z,40.27
2022-10-28T11:24:57.452Z,42.12
2022-10-28T11:27:39.909Z,42.83
2022-10-28T11:30:19.597Z,43.57
2022-10-28T11:33:07.932Z,43.51
2022-10-28T11:35:55.146Z,43.70
2022-10-28T11:38:36.169Z,44.96
2022-10-28T11:41:16.765Z,45.06
2022-10-28T11:43:54.798Z,45.06
2022-10-28T11:46:37.554Z,43.30
2022-10-28T11:49:30.887Z,40.84
2022-10-28T11:52:07.003Z,42.15
2022-10-28T11:54:50.772Z,42.01
2022-10-28T11:57:25.259Z,42.74
2022-10-28T12:00:16.346Z,43.98
2022-10-28T12:03:01.646Z,46.25
2022-10-28T12:05:34.167Z,46.91
2022-10-28T12:08:15.895Z,46.27
2022-10-28T12:10:54.571Z,44.44
2022-10-28T12:13:30.902Z,44.60
2022-10-28T12:16:06.841Z,45.63
2022-10-28T12:18:42.197Z,46.32
2022-10-28T12:21:20.690Z,47.63
2022-10-28T12:23:50.224Z,48.86
2022-10-28T12:26:21.087Z,48.98
2022-10-28T12:28:52.638Z,48.51
2022-10-28T12:31:25.177Z,47.82
2022-10-28T12:33:56.750Z,47.82
2022-10-28T12:36:32.950Z,46.51
2022-10-28T12:39:03.623Z,46.96
2022-10-28T12:41:47.692Z,46.92
2022-10-28T12:44:20.586Z,46.77
2022-10-28T12:46:58.636Z,45.84
2022-10-28T12:49:38.285Z,46.00
2022-10-28T12:52:26.891Z,46.44
2022-10-28T12:55:01.238Z,47.09
2022-10-28T12:57:30.311Z,47.67
2022-10-28T13:00:03.117Z,48.30
2022-10-28T13:02:40.182Z,48.95
2022-10-28T13:05:17.523Z,49.65
2022-10-28T13:07:59.769Z,50.71
2022-10-28T13:10:36.913Z,51.54
2022-10-28T13:13:29.556Z,52.70
2022-10-28T13:16:22.375Z,52.40
2022-10-28T13:19:05.628Z,52.89
2022-10-28T13:21:47.807Z,53.09
2022-10-28T13:24:22.515Z,53.51
2022-10-28T13:26:50.870Z,53.71
2022-10-28T13:29:22.994Z,53.46
2022-10-28T13:31:51.738Z,54.13
2022-10-28T13:34:31.456Z,55.30
2022-10-28T13:37:01.937Z,55.31
2022-10-28T13:39:43.098Z,55.89
2022-10-28T13:42:33.400Z,55.39
2022-10-28T13:45:03.416Z,55.27
2022-10-28T13:47:32.516Z,55.69
2022-10-28T13:50:29.814Z,55.88
2022-10-28T13:53:43.546Z,58.37
2022-10-28T13:56:37.236Z,57.67
2022-10-28T13:59:17.632Z,58.52
2022-10-28T14:04:56.833Z,57.14
2022-10-28T14:07:29.311Z,56.98
2022-10-28T14:10:15.002Z,57.38
2022-10-28T14:12:48.087Z,57.71
2022-10-28T14:15:22.144Z,57.85
2022-10-28T14:17:54.415Z,58.09
2022-10-28T14:20:30.595Z,58.17
2022-10-28T14:22:59.834Z,58.47
2022-10-28T14:26:00.672Z,58.67
2022-10-28T14:28:51.976Z,58.79
2022-10-28T14:31:38.875Z,59.61
2022-10-28T14:34:42.119Z,59.60
2022-10-28T14:37:48.300Z,60.09
2022-10-28T14:40:33.890Z,60.67
2022-10-28T14:43:15.412Z,60.25
2022-10-28T14:45:58.468Z,60.54
2022-10-28T14:48:48.581Z,60.75
2022-10-28T14:51:19.481Z,61.24
2022-10-28T14:53:48.502Z,61.29
2022-10-28T14:59:00.301Z,61.46
2022-10-28T15:01:29.944Z,61.60
2022-10-28T15:04:03.251Z,61.87
2022-10-28T15:06:36.260Z,62.12
2022-10-28T15:09:17.172Z,62.02
2022-10-28T15:11:49.670Z,62.19
2022-10-28T15:14:26.749Z,62.74
2022-10-28T15:16:54.879Z,63.28
2022-10-28T15:19:24.698Z,63.46
2022-10-28T15:22:06.595Z,63.91
2022-10-28T15:24:34.937Z,64.02
2022-10-28T15:27:04.136Z,64.37
2022-10-28T15:29:32.556Z,64.89
2022-10-28T15:32:08.392Z,65.34
2022-10-28T15:34:36.031Z,65.60
2022-10-28T15:37:05.288Z,65.68
2022-10-28T15:39:33.263Z,66.37
2022-10-28T15:42:02.758Z,66.37
2022-10-28T15:44:39.652Z,66.63
2022-10-28T15:47:21.072Z,67.02
2022-10-28T15:50:00.580Z,67.79
2022-10-28T15:52:40.157Z,67.90
2022-10-28T15:55:47.521Z,68.93
2022-10-28T15:58:34.132Z,69.15
2022-10-28T16:01:03.235Z,69.55
2022-10-28T16:03:44.128Z,69.84
2022-10-28T16:06:23.874Z,70.18
2022-10-28T16:09:05.175Z,70.61
2022-10-28T16:11:35.710Z,71.06
2022-10-28T16:14:15.954Z,71.25
2022-10-28T16:16:44.997Z,72.60
2022-10-28T16:19:26.338Z,73.29
2022-10-28T16:21:53.986Z,74.05
2022-10-28T16:24:21.582Z,73.33
2022-10-28T16:26:49.182Z,72.70
2022-10-28T16:29:16.797Z,73.06
2022-10-28T16:31:51.011Z,74.03
2022-10-28T16:34:18.638Z,74.04
2022-10-28T16:36:46.298Z,74.04
2022-10-28T16:39:14.100Z,73.97
2022-10-28T16:41:41.986Z,74.27
2022-10-28T16:44:17.755Z,74.55
2022-10-28T16:46:46.741Z,74.51
2022-10-28T16:49:14.834Z,74.58
2022-10-28T16:51:51.357Z,74.55
2022-10-28T16:54:18.985Z,75.00
2022-10-28T16:56:46.538Z,75.20
2022-10-28T16:59:15.568Z,75.54
2022-10-28T17:01:43.287Z,75.38
2022-10-28T17:04:12.315Z,75.57
2022-10-28T17:06:39.941Z,75.63
2022-10-28T17:09:07.501Z,75.94
2022-10-28T17:11:35.071Z,75.92
2022-10-28T17:14:02.701Z,76.07
2022-10-28T17:16:30.335Z,76.39
2022-10-28T17:18:57.910Z,76.61
2022-10-28T17:21:27.006Z,76.98
2022-10-28T17:23:54.575Z,76.97
2022-10-28T17:26:22.219Z,76.81
2022-10-28T17:28:52.050Z,77.40
2022-10-28T17:31:23.847Z,77.61
2022-10-28T17:33:54.358Z,77.70
2022-10-28T17:36:23.044Z,78.03
2022-10-28T17:38:52.044Z,78.53
2022-10-28T17:41:20.078Z,78.52
2022-10-28T17:43:47.636Z,78.88
2022-10-28T17:46:15.213Z,79.09
2022-10-28T17:48:42.978Z,79.58
2022-10-28T17:51:10.687Z,79.94
2022-10-28T17:53:38.414Z,80.36
2022-10-28T17:56:08.560Z,80.20
2022-10-28T17:58:36.288Z,81.27
2022-10-28T18:01:06.317Z,81.29
2022-10-28T18:03:38.258Z,81.38
2022-10-28T18:06:08.600Z,81.56
2022-10-28T18:08:37.309Z,82.14
2022-10-28T18:11:07.802Z,81.87
2022-10-28T18:13:37.337Z,82.02
2022-10-28T18:16:05.833Z,82.28
2022-10-28T18:18:37.442Z,82.16
2022-10-28T18:21:09.787Z,81.68
2022-10-28T18:23:37.692Z,81.72
2022-10-28T18:26:08.557Z,81.12
2022-10-28T18:28:37.398Z,81.63
2022-10-28T18:31:06.610Z,82.00
2022-10-28T18:33:35.392Z,81.25
2022-10-28T18:36:04.389Z,81.28
2022-10-28T18:38:32.768Z,80.77
2022-10-28T18:41:00.719Z,80.58
2022-10-28T18:43:29.796Z,80.46
2022-10-28T18:46:02.091Z,80.78
2022-10-28T18:48:31.147Z,80.88
2022-10-28T18:51:00.110Z,80.62
2022-10-28T18:53:28.378Z,80.80
2022-10-28T18:56:00.965Z,81.66
2022-10-28T18:58:30.153Z,81.63
2022-10-28T19:01:05.325Z,82.34
2022-10-28T19:03:32.973Z,82.88
2022-10-28T19:06:05.255Z,83.54
2022-10-28T19:08:33.028Z,83.34
2022-10-28T19:11:02.029Z,83.08
2022-10-28T19:13:33.849Z,83.30
2022-10-28T19:16:01.498Z,83.46
2022-10-28T19:18:29.202Z,83.18
2022-10-28T19:21:04.142Z,83.54
2022-10-28T19:23:32.702Z,84.53
2022-10-28T19:26:00.953Z,85.14
2022-10-28T19:28:29.125Z,85.73
2022-10-28T19:31:06.679Z,85.42
2022-10-28T19:33:34.310Z,85.53
2022-10-28T19:36:03.716Z,85.09
2022-10-28T19:38:32.798Z,84.92
2022-10-28T19:41:05.332Z,84.61
2022-10-28T19:43:33.207Z,84.87
2022-10-28T19:46:11.280Z,84.77
2022-10-28T19:48:40.000Z,84.79
2022-10-28T19:51:08.020Z,85.40
2022-10-28T19:53:35.854Z,85.95
2022-10-28T19:56:04.744Z,87.02
2022-10-28T19:58:33.270Z,87.29
2022-10-28T20:01:02.916Z,87.23
2022-10-28T20:03:34.589Z,86.99
2022-10-28T20:06:05.988Z,86.96
2022-10-28T20:08:37.268Z,87.47
2022-10-28T20:11:07.890Z,87.56
2022-10-28T20:13:36.493Z,87.53
2022-10-28T20:16:06.206Z,86.84
2022-10-28T20:18:38.264Z,86.34
2022-10-28T20:21:06.880Z,86.54
2022-10-28T20:23:35.727Z,86.97
2022-10-28T20:26:04.963Z,86.53
2022-10-28T20:28:33.038Z,87.00
2022-10-28T20:31:02.281Z,86.86
2022-10-28T20:33:31.227Z,85.78
2022-10-28T20:36:03.435Z,85.94
2022-10-28T20:38:35.547Z,86.91
2022-10-28T20:41:13.804Z,86.98
2022-10-28T20:43:43.343Z,87.00
2022-10-28T20:46:17.516Z,87.52
2022-10-28T20:48:47.608Z,87.82
2022-10-28T20:51:16.880Z,87.27
2022-10-28T20:53:44.418Z,87.41
2022-10-28T20:56:17.464Z,87.28
2022-10-28T20:58:45.386Z,87.67
2022-10-28T21:01:15.027Z,87.61
2022-10-28T21:03:42.933Z,87.71
2022-10-28T21:06:11.073Z,87.93
2022-10-28T21:08:40.151Z,87.75
2022-10-28T21:11:09.471Z,87.66
2022-10-28T21:13:37.147Z,87.41
2022-10-28T21:16:06.118Z,87.32
2022-10-28T21:18:34.210Z,87.12
2022-10-28T21:21:01.785Z,87.36
2022-10-28T21:23:30.004Z,88.04
2022-10-28T21:26:01.260Z,87.79
2022-10-28T21:28:30.543Z,88.53
2022-10-28T21:31:01.688Z,88.10
2022-10-28T21:33:29.830Z,87.78
2022-10-28T21:35:58.249Z,87.56
2022-10-28T21:38:27.155Z,87.12
2022-10-28T21:41:04.708Z,87.09
2022-10-28T21:43:34.042Z,87.25
2022-10-28T21:46:01.823Z,87.19
2022-10-28T21:48:30.216Z,87.10
2022-10-28T21:51:00.056Z,86.97
2022-10-28T21:53:28.386Z,86.95
2022-10-28T21:56:04.528Z,86.82
2022-10-28T21:58:32.415Z,86.70
2022-10-28T22:01:05.343Z,86.30
2022-10-28T22:03:32.908Z,86.35
2022-10-28T22:06:00.729Z,85.80
2022-10-28T22:08:28.611Z,86.21
2022-10-28T22:11:11.517Z,86.71
2022-10-28T22:13:40.522Z,87.15
2022-10-28T22:16:11.201Z,87.11
2022-10-28T22:18:39.351Z,86.83
2022-10-28T22:21:08.676Z,87.64
2022-10-28T22:23:36.749Z,87.23
2022-10-28T22:26:06.187Z,86.44
2022-10-28T22:28:34.153Z,85.62
2022-10-28T22:31:05.173Z,85.25
2022-10-28T22:33:33.412Z,85.48
2022-10-28T22:36:02.712Z,86.06
2022-10-28T22:38:30.443Z,86.58
2022-10-28T22:41:06.981Z,85.63
2022-10-28T22:43:35.223Z,86.17
2022-10-28T22:46:04.617Z,86.59
2022-10-28T22:48:33.180Z,86.22
2022-10-28T22:51:01.307Z,85.53
2022-10-28T22:53:29.329Z,85.24
2022-10-28T22:55:58.017Z,84.80
2022-10-28T22:58:27.397Z,85.01
2022-10-28T23:00:55.106Z,85.30
2022-10-28T23:03:24.065Z,85.47
2022-10-28T23:05:51.634Z,85.67
2022-10-28T23:08:19.456Z,84.10
2022-10-28T23:10:47.189Z,84.22
2022-10-28T23:13:14.758Z,84.84
2022-10-28T23:15:42.352Z,85.38
2022-10-28T23:18:09.987Z,86.57
2022-10-28T23:20:38.899Z,86.51
2022-10-28T23:23:06.526Z,85.92
2022-10-28T23:25:34.152Z,85.80
2022-10-28T23:28:01.740Z,85.23
2022-10-28T23:30:29.346Z,84.60
2022-10-28T23:32:57.843Z,84.36
2022-10-28T23:35:26.110Z,85.35
2022-10-28T23:37:55.308Z,85.57
2022-10-28T23:40:23.176Z,84.67
2022-10-28T23:42:50.748Z,84.88
2022-10-28T23:45:18.391Z,85.30
2022-10-28T23:47:46.104Z,85.65
2022-10-28T23:50:15.798Z,86.14
2022-10-28T23:52:43.507Z,85.85
2022-10-28T23:55:12.484Z,85.75
2022-10-28T23:57:40.130Z,86.31
